AirNav   ATP
 
 886 users online  

0MU7 Lambs Field Airport
Lone Jack, Missouri, USA

GOING TO LONE JACK?


FAA INFORMATION EFFECTIVE 08 NOVEMBER 2018

Location

FAA Identifier: 0MU7
Lat/Long: 38-52-30.0310N / 094-08-22.8020W
38-52.500517N / 094-08.380033W
38.8750086 / -94.1396672
(estimated)
Elevation: 1070 ft. / 326 m (estimated)
Variation: 04E (1995)
From city: 3 miles E of LONE JACK, MO
Time zone: UTC -6 (UTC -5 during Daylight Saving Time)
Zip code: 64070

Airport Operations

Airport use: Private use. Permission required prior to landing
Activation date: 09/1996
Control tower: no
ARTCC: KANSAS CITY CENTER
FSS: COLUMBIA FLIGHT SERVICE STATION
Attendance: UNATNDD
Wind indicator: yes
Segmented circle: no

Airport Communications

WX ASOS at LXT (12 nm NW): 124.175 (816-347-9807)
WX AWOS-3 at RCM (17 nm E): 119.575 (660-422-7010)
WX AWOS-3PT at LRY (19 nm SW): 119.975 (816-380-5936)

Nearby radio navigation aids

VOR radial/distance  VOR name  Freq  Var
ANXr175/13.2NAPOLEON VORTAC114.0007E
MCIr126/37.2KANSAS CITY VORTAC113.2505E
BUMr017/39.7BUTLER VORTAC115.9007E

 
NDB name  Hdg/Dist  Freq  Var  ID
GOLDEN VALLEY324/37.638801EGLY --. .-.. -.--

Airport Services

Runway Information

Runway 18/36

Dimensions: 2600 x 60 ft. / 792 x 18 m
Surface: turf
RUNWAY 18  RUNWAY 36
Traffic pattern: leftleft

Airport Ownership and Management from official FAA records

Ownership: Privately-owned
Owner: JIMMIE D LAMB
13301 S. RAGSDALE RD.
LOVE JACK, MO 64070
Phone (913) 207-1904
Manager: TERRY D. LAMB
13301 S. RAGSDALE RD.
LOVE JACK, MO 64070
Phone (913) 207-1904

Airport Operational Statistics

Aircraft based on the field: 6
Single engine airplanes: 2
Ultralights: 4
    

Additional Remarks

FOR CD CTC KANSAS CITY APCH AT 816-329-2710.

Instrument Procedures

There are no published instrument procedures at 0MU7.

Some nearby airports with instrument procedures:

3GV - East Kansas City Airport (9 nm NW)
KLXT - Lee's Summit Municipal Airport (12 nm NW)
KRCM - Skyhaven Airport (17 nm E)
KLRY - Lawrence Smith Memorial Airport (19 nm SW)
KHIG - Higginsville Industrial Municipal Airport (25 nm NE)
 
Loc | Ops | Rwys | IFR | FBO | Links
Com | Nav | Svcs | Stats | Notes

Kansas City Aviation Department
 
Area around 0MU7 (Lambs Field Airport)
 
Road maps at: MapQuest Bing Google
 
Aerial photo
No photo
 
Sectional chart

 
Airport distance calculator
Flying to Lambs Field Airport? Find the distance to fly.

From to 0MU7

Sunrise and sunset
Times for 20-Nov-2018
 Local
(UTC-6)
 Zulu
(UTC)
Morning civil twilight06:3712:37
Sunrise07:0613:06
Sunset16:5922:59
Evening civil twilight17:2823:28

Current date and time
Zulu (UTC)  21-Nov-2018 01:38:34
Local (UTC-6)  20-Nov-2018 19:38:34
 
METAR
KLXT 
12nm NW 
210053Z AUTO 21008KT 10SM CLR 04/M02 A3023 RMK AO2 SLP249 T00391017
KRCM 
17nm E 
210115Z AUTO 17005KT 10SM CLR 02/M03 A3026 RMK AO2
KLRY 
19nm SW 
210115Z AUTO 19003KT 10SM CLR 02/M02 A3028 RMK AO2
TAF
KMKC 
26nm NW 
201720Z 2018/2118 21006KT P6SM FEW250
KSZL 
30nm E 
201900Z 2019/2201 22006KT 9999 SKC QNH3020INS TX11/2118Z TN00/2111Z
NOTAMs
Click for the latest NOTAMs
NOTAMs are issued by the DoD/FAA and will open in a separate window not controlled by AirNav.

 

 
 

Would you like to see your business listed on this page?

 If your business provides an interesting product or service to pilots, flight crews, aircraft, or users of the Lambs Field Airport, you should consider listing it here.  To start the listing process, click on the button below
 
Add a business
 

Other Pages about Lambs Field Airport

Update a link
 
Copyright © AirNav, LLC. All rights reserved. Privacy Policy  Contact